sensor_id;sensor_type;location;lat;lon;timestamp;P1;durP1;ratioP1;P2;durP2;ratioP2
26756;SDS011;23848;49.798;10.228;2023-02-23T00:00:36;15.43;;;9.23;;
26756;SDS011;23848;49.798;10.228;2023-02-23T00:03:05;13.80;;;8.88;;
26756;SDS011;23848;49.798;10.228;2023-02-23T00:05:35;15.02;;;9.32;;
26756;SDS011;23848;49.798;10.228;2023-02-23T00:08:04;11.63;;;8.63;;
26756;SDS011;23848;49.798;10.228;2023-02-23T00:10:33;13.68;;;8.75;;
26756;SDS011;23848;49.798;10.228;2023-02-23T00:13:01;12.65;;;8.27;;
26756;SDS011;23848;49.798;10.228;2023-02-23T00:15:30;13.00;;;8.68;;
26756;SDS011;23848;49.798;10.228;2023-02-23T00:17:58;13.50;;;8.40;;
26756;SDS011;23848;49.798;10.228;2023-02-23T00:20:29;13.57;;;9.23;;
26756;SDS011;23848;49.798;10.228;2023-02-23T00:22:58;15.02;;;9.20;;
26756;SDS011;23848;49.798;10.228;2023-02-23T00:25:27;15.13;;;9.23;;
26756;SDS011;23848;49.798;10.228;2023-02-23T00:27:57;15.13;;;9.15;;
26756;SDS011;23848;49.798;10.228;2023-02-23T00:30:26;13.63;;;9.10;;
26756;SDS011;23848;49.798;10.228;2023-02-23T00:32:54;13.57;;;8.80;;
26756;SDS011;23848;49.798;10.228;2023-02-23T00:35:23;13.48;;;8.93;;
26756;SDS011;23848;49.798;10.228;2023-02-23T00:37:51;13.32;;;9.00;;
26756;SDS011;23848;49.798;10.228;2023-02-23T00:40:20;12.15;;;8.52;;
26756;SDS011;23848;49.798;10.228;2023-02-23T00:42:51;13.20;;;8.95;;
26756;SDS011;23848;49.798;10.228;2023-02-23T00:45:20;16.33;;;10.00;;
26756;SDS011;23848;49.798;10.228;2023-02-23T00:47:48;14.27;;;9.43;;
26756;SDS011;23848;49.798;10.228;2023-02-23T00:50:17;13.30;;;9.30;;
26756;SDS011;23848;49.798;10.228;2023-02-23T00:52:45;15.68;;;9.40;;
26756;SDS011;23848;49.798;10.228;2023-02-23T00:55:14;11.55;;;8.95;;
26756;SDS011;23848;49.798;10.228;2023-02-23T00:57:43;15.05;;;9.68;;
26756;SDS011;23848;49.798;10.228;2023-02-23T01:00:14;13.18;;;8.98;;
26756;SDS011;23848;49.798;10.228;2023-02-23T01:02:46;18.05;;;9.50;;
26756;SDS011;23848;49.798;10.228;2023-02-23T01:05:14;17.98;;;12.15;;
26756;SDS011;23848;49.798;10.228;2023-02-23T01:07:43;17.45;;;12.27;;
26756;SDS011;23848;49.798;10.228;2023-02-23T01:10:12;13.63;;;9.98;;
26756;SDS011;23848;49.798;10.228;2023-02-23T01:12:47;13.30;;;9.50;;
26756;SDS011;23848;49.798;10.228;2023-02-23T01:15:17;15.70;;;9.93;;
26756;SDS011;23848;49.798;10.228;2023-02-23T01:17:46;15.10;;;9.88;;
26756;SDS011;23848;49.798;10.228;2023-02-23T01:20:15;13.45;;;9.38;;
26756;SDS011;23848;49.798;10.228;2023-02-23T01:22:45;15.95;;;9.60;;
26756;SDS011;23848;49.798;10.228;2023-02-23T01:25:13;14.60;;;10.48;;
26756;SDS011;23848;49.798;10.228;2023-02-23T01:27:42;17.95;;;11.30;;
26756;SDS011;23848;49.798;10.228;2023-02-23T01:30:11;16.75;;;11.00;;
26756;SDS011;23848;49.798;10.228;2023-02-23T01:32:42;16.65;;;10.48;;
26756;SDS011;23848;49.798;10.228;2023-02-23T01:35:10;19.10;;;9.95;;
26756;SDS011;23848;49.798;10.228;2023-02-23T01:37:39;17.25;;;10.50;;
26756;SDS011;23848;49.798;10.228;2023-02-23T01:40:10;19.60;;;10.57;;
26756;SDS011;23848;49.798;10.228;2023-02-23T01:42:41;17.23;;;10.27;;
26756;SDS011;23848;49.798;10.228;2023-02-23T01:45:17;13.80;;;9.80;;
26756;SDS011;23848;49.798;10.228;2023-02-23T01:47:48;17.20;;;11.13;;
26756;SDS011;23848;49.798;10.228;2023-02-23T01:50:17;17.95;;;10.68;;
26756;SDS011;23848;49.798;10.228;2023-02-23T01:52:46;16.17;;;10.85;;
26756;SDS011;23848;49.798;10.228;2023-02-23T01:55:16;16.60;;;10.25;;
26756;SDS011;23848;49.798;10.228;2023-02-23T01:57:49;16.55;;;10.35;;
26756;SDS011;23848;49.798;10.228;2023-02-23T02:00:20;17.20;;;10.93;;
26756;SDS011;23848;49.798;10.228;2023-02-23T02:02:52;18.50;;;10.52;;
26756;SDS011;23848;49.798;10.228;2023-02-23T02:05:21;15.55;;;10.52;;
26756;SDS011;23848;49.798;10.228;2023-02-23T02:07:49;13.88;;;10.38;;
26756;SDS011;23848;49.798;10.228;2023-02-23T02:10:25;14.95;;;10.25;;
26756;SDS011;23848;49.798;10.228;2023-02-23T02:13:06;18.10;;;11.82;;
26756;SDS011;23848;49.798;10.228;2023-02-23T02:15:37;21.35;;;12.35;;
26756;SDS011;23848;49.798;10.228;2023-02-23T02:18:11;19.85;;;13.13;;
26756;SDS011;23848;49.798;10.228;2023-02-23T02:21:01;18.05;;;11.68;;
26756;SDS011;23848;49.798;10.228;2023-02-23T02:26:21;20.73;;;13.07;;
26756;SDS011;23848;49.798;10.228;2023-02-23T02:29:00;19.35;;;12.25;;
26756;SDS011;23848;49.798;10.228;2023-02-23T02:34:27;17.92;;;11.23;;
26756;SDS011;23848;49.798;10.228;2023-02-23T02:37:06;19.67;;;11.60;;
26756;SDS011;23848;49.798;10.228;2023-02-23T02:39:36;16.92;;;11.68;;
26756;SDS011;23848;49.798;10.228;2023-02-23T02:42:13;16.80;;;11.70;;
26756;SDS011;23848;49.798;10.228;2023-02-23T02:44:47;16.40;;;11.55;;
26756;SDS011;23848;49.798;10.228;2023-02-23T02:47:19;16.58;;;11.20;;
26756;SDS011;23848;49.798;10.228;2023-02-23T02:49:49;18.50;;;11.07;;
26756;SDS011;23848;49.798;10.228;2023-02-23T02:52:22;14.20;;;10.77;;
26756;SDS011;23848;49.798;10.228;2023-02-23T02:54:51;16.45;;;11.48;;
26756;SDS011;23848;49.798;10.228;2023-02-23T02:57:22;16.35;;;11.15;;
26756;SDS011;23848;49.798;10.228;2023-02-23T02:59:51;16.90;;;11.25;;
26756;SDS011;23848;49.798;10.228;2023-02-23T03:02:38;15.57;;;11.00;;
26756;SDS011;23848;49.798;10.228;2023-02-23T03:05:26;16.13;;;11.43;;
26756;SDS011;23848;49.798;10.228;2023-02-23T03:08:18;14.77;;;10.77;;
26756;SDS011;23848;49.798;10.228;2023-02-23T03:11:06;17.15;;;10.98;;
26756;SDS011;23848;49.798;10.228;2023-02-23T03:13:57;14.30;;;10.50;;
26756;SDS011;23848;49.798;10.228;2023-02-23T03:16:48;16.23;;;10.73;;
26756;SDS011;23848;49.798;10.228;2023-02-23T03:19:39;15.18;;;11.27;;
26756;SDS011;23848;49.798;10.228;2023-02-23T03:22:28;17.63;;;12.45;;
26756;SDS011;23848;49.798;10.228;2023-02-23T03:25:19;19.95;;;12.82;;
26756;SDS011;23848;49.798;10.228;2023-02-23T03:28:09;18.40;;;13.07;;
26756;SDS011;23848;49.798;10.228;2023-02-23T03:30:58;18.27;;;12.98;;
26756;SDS011;23848;49.798;10.228;2023-02-23T03:33:49;19.45;;;13.88;;
26756;SDS011;23848;49.798;10.228;2023-02-23T03:36:38;17.42;;;12.30;;
26756;SDS011;23848;49.798;10.228;2023-02-23T03:39:28;19.77;;;13.02;;
26756;SDS011;23848;49.798;10.228;2023-02-23T03:42:18;17.73;;;12.25;;
26756;SDS011;23848;49.798;10.228;2023-02-23T03:45:06;16.95;;;13.18;;
26756;SDS011;23848;49.798;10.228;2023-02-23T03:47:53;20.73;;;13.95;;
26756;SDS011;23848;49.798;10.228;2023-02-23T03:50:40;18.95;;;12.85;;
26756;SDS011;23848;49.798;10.228;2023-02-23T03:53:29;19.70;;;13.07;;
26756;SDS011;23848;49.798;10.228;2023-02-23T03:56:18;18.92;;;12.82;;
26756;SDS011;23848;49.798;10.228;2023-02-23T03:59:07;19.30;;;13.02;;
26756;SDS011;23848;49.798;10.228;2023-02-23T04:01:55;20.60;;;12.48;;
26756;SDS011;23848;49.798;10.228;2023-02-23T04:04:41;20.90;;;13.07;;
26756;SDS011;23848;49.798;10.228;2023-02-23T04:07:28;15.48;;;12.38;;
26756;SDS011;23848;49.798;10.228;2023-02-23T04:10:14;18.50;;;12.25;;
26756;SDS011;23848;49.798;10.228;2023-02-23T04:13:02;17.00;;;12.43;;
26756;SDS011;23848;49.798;10.228;2023-02-23T04:15:43;19.42;;;12.85;;
26756;SDS011;23848;49.798;10.228;2023-02-23T04:18:12;20.17;;;12.10;;
26756;SDS011;23848;49.798;10.228;2023-02-23T04:20:41;16.95;;;12.32;;
26756;SDS011;23848;49.798;10.228;2023-02-23T04:23:09;18.77;;;12.70;;
26756;SDS011;23848;49.798;10.228;2023-02-23T04:25:38;19.33;;;12.95;;
26756;SDS011;23848;49.798;10.228;2023-02-23T04:28:06;20.83;;;13.80;;
26756;SDS011;23848;49.798;10.228;2023-02-23T04:30:34;25.98;;;19.05;;
26756;SDS011;23848;49.798;10.228;2023-02-23T04:33:04;19.38;;;14.23;;
26756;SDS011;23848;49.798;10.228;2023-02-23T04:35:32;22.20;;;14.55;;
26756;SDS011;23848;49.798;10.228;2023-02-23T04:38:01;19.40;;;13.63;;
26756;SDS011;23848;49.798;10.228;2023-02-23T04:40:29;18.35;;;13.27;;
26756;SDS011;23848;49.798;10.228;2023-02-23T04:42:58;19.65;;;12.63;;
26756;SDS011;23848;49.798;10.228;2023-02-23T04:45:26;18.90;;;14.18;;
26756;SDS011;23848;49.798;10.228;2023-02-23T04:47:54;16.88;;;12.35;;
26756;SDS011;23848;49.798;10.228;2023-02-23T04:50:24;18.23;;;14.18;;
26756;SDS011;23848;49.798;10.228;2023-02-23T04:52:52;18.17;;;12.85;;
26756;SDS011;23848;49.798;10.228;2023-02-23T04:55:22;17.42;;;12.85;;
26756;SDS011;23848;49.798;10.228;2023-02-23T04:57:51;19.20;;;13.73;;
26756;SDS011;23848;49.798;10.228;2023-02-23T05:00:24;21.80;;;13.45;;
26756;SDS011;23848;49.798;10.228;2023-02-23T05:02:52;19.13;;;13.40;;
26756;SDS011;23848;49.798;10.228;2023-02-23T05:05:21;19.40;;;13.02;;
26756;SDS011;23848;49.798;10.228;2023-02-23T05:07:50;19.42;;;13.55;;
26756;SDS011;23848;49.798;10.228;2023-02-23T05:10:20;19.00;;;12.32;;
26756;SDS011;23848;49.798;10.228;2023-02-23T05:12:48;18.80;;;13.27;;
26756;SDS011;23848;49.798;10.228;2023-02-23T05:15:17;21.65;;;13.43;;
26756;SDS011;23848;49.798;10.228;2023-02-23T05:17:45;17.88;;;12.82;;
26756;SDS011;23848;49.798;10.228;2023-02-23T05:20:14;18.90;;;13.13;;
26756;SDS011;23848;49.798;10.228;2023-02-23T05:22:42;19.65;;;12.95;;
26756;SDS011;23848;49.798;10.228;2023-02-23T05:25:12;17.27;;;13.50;;
26756;SDS011;23848;49.798;10.228;2023-02-23T05:27:40;18.98;;;14.18;;
26756;SDS011;23848;49.798;10.228;2023-02-23T05:30:09;19.77;;;14.23;;
26756;SDS011;23848;49.798;10.228;2023-02-23T05:32:38;18.95;;;13.27;;
26756;SDS011;23848;49.798;10.228;2023-02-23T05:35:07;18.27;;;13.15;;
26756;SDS011;23848;49.798;10.228;2023-02-23T05:37:35;17.33;;;13.18;;
26756;SDS011;23848;49.798;10.228;2023-02-23T05:40:04;18.48;;;13.40;;
26756;SDS011;23848;49.798;10.228;2023-02-23T05:42:34;17.83;;;12.50;;
26756;SDS011;23848;49.798;10.228;2023-02-23T05:45:04;18.45;;;14.00;;
26756;SDS011;23848;49.798;10.228;2023-02-23T05:47:32;19.90;;;14.48;;
26756;SDS011;23848;49.798;10.228;2023-02-23T05:50:04;22.25;;;14.90;;
26756;SDS011;23848;49.798;10.228;2023-02-23T05:52:35;23.38;;;16.15;;
26756;SDS011;23848;49.798;10.228;2023-02-23T05:55:04;23.05;;;16.80;;
26756;SDS011;23848;49.798;10.228;2023-02-23T05:57:34;25.92;;;17.17;;
26756;SDS011;23848;49.798;10.228;2023-02-23T06:00:03;23.00;;;15.98;;
26756;SDS011;23848;49.798;10.228;2023-02-23T06:02:32;23.42;;;16.83;;
26756;SDS011;23848;49.798;10.228;2023-02-23T06:05:01;23.25;;;16.58;;
26756;SDS011;23848;49.798;10.228;2023-02-23T06:07:31;26.42;;;18.10;;
26756;SDS011;23848;49.798;10.228;2023-02-23T06:09:59;24.67;;;17.70;;
26756;SDS011;23848;49.798;10.228;2023-02-23T06:12:30;25.73;;;17.50;;
26756;SDS011;23848;49.798;10.228;2023-02-23T06:15:00;25.77;;;18.33;;
26756;SDS011;23848;49.798;10.228;2023-02-23T06:17:29;28.08;;;20.10;;
26756;SDS011;23848;49.798;10.228;2023-02-23T06:19:57;29.00;;;19.70;;
26756;SDS011;23848;49.798;10.228;2023-02-23T06:22:27;28.80;;;19.33;;
26756;SDS011;23848;49.798;10.228;2023-02-23T06:24:55;28.27;;;20.15;;
26756;SDS011;23848;49.798;10.228;2023-02-23T06:27:23;26.92;;;18.88;;
26756;SDS011;23848;49.798;10.228;2023-02-23T06:29:52;28.80;;;19.10;;
26756;SDS011;23848;49.798;10.228;2023-02-23T06:32:22;27.35;;;19.85;;
26756;SDS011;23848;49.798;10.228;2023-02-23T06:34:50;30.52;;;20.73;;
26756;SDS011;23848;49.798;10.228;2023-02-23T06:37:20;31.05;;;21.00;;
26756;SDS011;23848;49.798;10.228;2023-02-23T06:39:49;29.83;;;20.75;;
26756;SDS011;23848;49.798;10.228;2023-02-23T06:42:17;31.17;;;21.48;;
26756;SDS011;23848;49.798;10.228;2023-02-23T06:44:45;32.28;;;23.45;;
26756;SDS011;23848;49.798;10.228;2023-02-23T06:47:14;33.97;;;24.50;;
26756;SDS011;23848;49.798;10.228;2023-02-23T06:49:43;30.60;;;21.25;;
26756;SDS011;23848;49.798;10.228;2023-02-23T06:52:13;40.78;;;26.60;;
26756;SDS011;23848;49.798;10.228;2023-02-23T06:54:41;38.78;;;24.27;;
26756;SDS011;23848;49.798;10.228;2023-02-23T06:57:09;33.80;;;23.05;;
26756;SDS011;23848;49.798;10.228;2023-02-23T06:59:38;37.72;;;23.73;;
26756;SDS011;23848;49.798;10.228;2023-02-23T07:02:09;30.48;;;21.50;;
26756;SDS011;23848;49.798;10.228;2023-02-23T07:04:37;29.83;;;20.73;;
26756;SDS011;23848;49.798;10.228;2023-02-23T07:07:07;31.95;;;21.05;;
26756;SDS011;23848;49.798;10.228;2023-02-23T07:09:35;33.80;;;23.38;;
26756;SDS011;23848;49.798;10.228;2023-02-23T07:12:04;31.63;;;20.73;;
26756;SDS011;23848;49.798;10.228;2023-02-23T07:14:33;34.70;;;23.00;;
26756;SDS011;23848;49.798;10.228;2023-02-23T07:17:02;35.42;;;23.15;;
26756;SDS011;23848;49.798;10.228;2023-02-23T07:19:31;39.30;;;26.58;;
26756;SDS011;23848;49.798;10.228;2023-02-23T07:21:59;36.92;;;24.17;;
26756;SDS011;23848;49.798;10.228;2023-02-23T07:24:29;32.38;;;22.45;;
26756;SDS011;23848;49.798;10.228;2023-02-23T07:26:57;35.63;;;22.60;;
26756;SDS011;23848;49.798;10.228;2023-02-23T07:29:26;37.30;;;23.92;;
26756;SDS011;23848;49.798;10.228;2023-02-23T07:31:54;33.70;;;22.58;;
26756;SDS011;23848;49.798;10.228;2023-02-23T07:34:23;40.65;;;26.15;;
26756;SDS011;23848;49.798;10.228;2023-02-23T07:36:51;36.60;;;26.00;;
26756;SDS011;23848;49.798;10.228;2023-02-23T07:39:19;36.45;;;25.52;;
26756;SDS011;23848;49.798;10.228;2023-02-23T07:41:49;38.92;;;26.10;;
26756;SDS011;23848;49.798;10.228;2023-02-23T07:44:17;40.47;;;25.80;;
26756;SDS011;23848;49.798;10.228;2023-02-23T07:46:45;38.50;;;24.42;;
26756;SDS011;23848;49.798;10.228;2023-02-23T07:49:14;36.97;;;25.15;;
26756;SDS011;23848;49.798;10.228;2023-02-23T07:51:43;37.42;;;25.17;;
26756;SDS011;23848;49.798;10.228;2023-02-23T07:54:11;36.70;;;24.05;;
26756;SDS011;23848;49.798;10.228;2023-02-23T07:56:40;40.53;;;25.20;;
26756;SDS011;23848;49.798;10.228;2023-02-23T07:59:10;37.45;;;24.52;;
26756;SDS011;23848;49.798;10.228;2023-02-23T08:01:39;41.10;;;25.02;;
26756;SDS011;23848;49.798;10.228;2023-02-23T08:04:07;41.05;;;27.02;;
26756;SDS011;23848;49.798;10.228;2023-02-23T08:06:36;44.22;;;27.55;;
26756;SDS011;23848;49.798;10.228;2023-02-23T08:09:04;45.45;;;28.63;;
26756;SDS011;23848;49.798;10.228;2023-02-23T08:11:32;44.08;;;27.23;;
26756;SDS011;23848;49.798;10.228;2023-02-23T08:14:01;42.85;;;27.55;;
26756;SDS011;23848;49.798;10.228;2023-02-23T08:16:31;45.33;;;28.35;;
26756;SDS011;23848;49.798;10.228;2023-02-23T08:19:00;47.58;;;28.50;;
26756;SDS011;23848;49.798;10.228;2023-02-23T08:21:29;47.10;;;28.40;;
26756;SDS011;23848;49.798;10.228;2023-02-23T08:23:57;45.03;;;27.85;;
26756;SDS011;23848;49.798;10.228;2023-02-23T08:26:26;46.35;;;28.27;;
26756;SDS011;23848;49.798;10.228;2023-02-23T08:28:54;43.80;;;28.80;;
26756;SDS011;23848;49.798;10.228;2023-02-23T08:31:22;46.13;;;28.70;;
26756;SDS011;23848;49.798;10.228;2023-02-23T08:33:54;46.20;;;29.35;;
26756;SDS011;23848;49.798;10.228;2023-02-23T08:36:22;48.47;;;28.70;;
26756;SDS011;23848;49.798;10.228;2023-02-23T08:38:51;49.38;;;28.52;;
26756;SDS011;23848;49.798;10.228;2023-02-23T08:41:19;45.17;;;28.00;;
26756;SDS011;23848;49.798;10.228;2023-02-23T08:43:48;47.90;;;28.30;;
26756;SDS011;23848;49.798;10.228;2023-02-23T08:46:16;45.67;;;27.70;;
26756;SDS011;23848;49.798;10.228;2023-02-23T08:48:45;43.38;;;27.70;;
26756;SDS011;23848;49.798;10.228;2023-02-23T08:51:15;45.10;;;28.15;;
26756;SDS011;23848;49.798;10.228;2023-02-23T08:53:44;43.92;;;26.95;;
26756;SDS011;23848;49.798;10.228;2023-02-23T08:56:12;44.60;;;28.10;;
26756;SDS011;23848;49.798;10.228;2023-02-23T08:58:41;43.88;;;27.98;;
26756;SDS011;23848;49.798;10.228;2023-02-23T09:01:14;43.13;;;26.48;;
26756;SDS011;23848;49.798;10.228;2023-02-23T09:03:47;42.42;;;26.38;;
26756;SDS011;23848;49.798;10.228;2023-02-23T09:06:17;42.58;;;28.30;;
26756;SDS011;23848;49.798;10.228;2023-02-23T09:08:46;47.95;;;27.35;;
26756;SDS011;23848;49.798;10.228;2023-02-23T09:11:14;43.42;;;27.40;;
26756;SDS011;23848;49.798;10.228;2023-02-23T09:13:43;44.55;;;27.17;;
26756;SDS011;23848;49.798;10.228;2023-02-23T09:16:12;40.28;;;25.92;;
26756;SDS011;23848;49.798;10.228;2023-02-23T09:18:40;39.15;;;25.10;;
26756;SDS011;23848;49.798;10.228;2023-02-23T09:21:12;43.08;;;26.88;;
26756;SDS011;23848;49.798;10.228;2023-02-23T09:23:46;39.70;;;24.35;;
26756;SDS011;23848;49.798;10.228;2023-02-23T09:26:16;39.10;;;24.65;;
26756;SDS011;23848;49.798;10.228;2023-02-23T09:28:45;37.45;;;24.60;;
26756;SDS011;23848;49.798;10.228;2023-02-23T09:31:15;36.63;;;22.83;;
26756;SDS011;23848;49.798;10.228;2023-02-23T09:33:44;37.65;;;23.27;;
26756;SDS011;23848;49.798;10.228;2023-02-23T09:36:15;36.80;;;23.83;;
26756;SDS011;23848;49.798;10.228;2023-02-23T09:38:47;36.28;;;23.67;;
26756;SDS011;23848;49.798;10.228;2023-02-23T09:41:28;36.42;;;23.40;;
26756;SDS011;23848;49.798;10.228;2023-02-23T09:44:02;37.53;;;22.52;;
26756;SDS011;23848;49.798;10.228;2023-02-23T09:46:37;34.50;;;22.42;;
26756;SDS011;23848;49.798;10.228;2023-02-23T09:49:12;34.90;;;22.70;;
26756;SDS011;23848;49.798;10.228;2023-02-23T09:51:46;34.80;;;21.52;;
26756;SDS011;23848;49.798;10.228;2023-02-23T09:54:20;33.97;;;22.10;;
26756;SDS011;23848;49.798;10.228;2023-02-23T09:56:54;32.33;;;21.00;;
26756;SDS011;23848;49.798;10.228;2023-02-23T09:59:26;33.85;;;22.05;;
26756;SDS011;23848;49.798;10.228;2023-02-23T10:01:57;36.60;;;22.35;;
26756;SDS011;23848;49.798;10.228;2023-02-23T10:04:31;32.95;;;21.38;;
26756;SDS011;23848;49.798;10.228;2023-02-23T10:07:03;31.85;;;21.75;;
26756;SDS011;23848;49.798;10.228;2023-02-23T10:09:41;34.88;;;21.70;;
26756;SDS011;23848;49.798;10.228;2023-02-23T10:12:15;31.23;;;20.52;;
26756;SDS011;23848;49.798;10.228;2023-02-23T10:14:54;33.67;;;21.83;;
26756;SDS011;23848;49.798;10.228;2023-02-23T10:17:28;30.02;;;20.42;;
26756;SDS011;23848;49.798;10.228;2023-02-23T10:20:03;30.00;;;20.05;;
26756;SDS011;23848;49.798;10.228;2023-02-23T10:22:33;33.47;;;21.88;;
26756;SDS011;23848;49.798;10.228;2023-02-23T10:25:03;31.10;;;20.92;;
26756;SDS011;23848;49.798;10.228;2023-02-23T10:27:39;33.10;;;21.60;;
26756;SDS011;23848;49.798;10.228;2023-02-23T10:30:13;30.80;;;20.95;;
26756;SDS011;23848;49.798;10.228;2023-02-23T10:32:46;30.58;;;20.67;;
26756;SDS011;23848;49.798;10.228;2023-02-23T10:35:20;28.17;;;18.88;;
26756;SDS011;23848;49.798;10.228;2023-02-23T10:37:50;28.20;;;17.92;;
26756;SDS011;23848;49.798;10.228;2023-02-23T10:40:19;27.25;;;18.48;;
26756;SDS011;23848;49.798;10.228;2023-02-23T10:42:49;25.27;;;17.65;;
26756;SDS011;23848;49.798;10.228;2023-02-23T10:45:19;28.65;;;17.55;;
26756;SDS011;23848;49.798;10.228;2023-02-23T10:47:51;26.38;;;17.42;;
26756;SDS011;23848;49.798;10.228;2023-02-23T10:50:20;30.67;;;19.67;;
26756;SDS011;23848;49.798;10.228;2023-02-23T10:52:53;28.75;;;18.58;;
26756;SDS011;23848;49.798;10.228;2023-02-23T10:55:23;26.13;;;17.15;;
26756;SDS011;23848;49.798;10.228;2023-02-23T10:58:02;28.15;;;17.77;;
26756;SDS011;23848;49.798;10.228;2023-02-23T11:00:31;27.73;;;18.67;;
26756;SDS011;23848;49.798;10.228;2023-02-23T11:03:02;29.25;;;18.40;;
26756;SDS011;23848;49.798;10.228;2023-02-23T11:05:44;28.50;;;17.85;;
26756;SDS011;23848;49.798;10.228;2023-02-23T11:08:20;23.88;;;16.17;;
26756;SDS011;23848;49.798;10.228;2023-02-23T11:13:44;24.60;;;15.13;;
26756;SDS011;23848;49.798;10.228;2023-02-23T11:19:15;21.60;;;15.07;;
26756;SDS011;23848;49.798;10.228;2023-02-23T11:22:15;20.23;;;12.68;;
26756;SDS011;23848;49.798;10.228;2023-02-23T11:24:48;22.10;;;14.35;;
26756;SDS011;23848;49.798;10.228;2023-02-23T11:27:27;20.77;;;14.10;;
26756;SDS011;23848;49.798;10.228;2023-02-23T11:30:09;19.98;;;13.32;;
26756;SDS011;23848;49.798;10.228;2023-02-23T11:32:49;14.90;;;10.70;;
26756;SDS011;23848;49.798;10.228;2023-02-23T11:35:38;15.18;;;10.07;;
26756;SDS011;23848;49.798;10.228;2023-02-23T11:41:22;15.50;;;10.55;;
26756;SDS011;23848;49.798;10.228;2023-02-23T11:43:55;16.48;;;9.85;;
26756;SDS011;23848;49.798;10.228;2023-02-23T11:46:41;15.75;;;9.93;;
26756;SDS011;23848;49.798;10.228;2023-02-23T11:49:26;15.97;;;9.73;;
26756;SDS011;23848;49.798;10.228;2023-02-23T11:52:14;14.30;;;9.52;;
26756;SDS011;23848;49.798;10.228;2023-02-23T11:54:53;11.95;;;8.43;;
26756;SDS011;23848;49.798;10.228;2023-02-23T11:57:45;12.77;;;8.20;;
26756;SDS011;23848;49.798;10.228;2023-02-23T12:00:25;13.60;;;7.65;;
26756;SDS011;23848;49.798;10.228;2023-02-23T12:02:57;12.70;;;7.65;;
26756;SDS011;23848;49.798;10.228;2023-02-23T12:05:27;11.93;;;7.82;;
26756;SDS011;23848;49.798;10.228;2023-02-23T12:08:02;14.98;;;8.15;;
26756;SDS011;23848;49.798;10.228;2023-02-23T12:10:33;11.43;;;7.72;;
26756;SDS011;23848;49.798;10.228;2023-02-23T12:13:24;10.73;;;7.25;;
26756;SDS011;23848;49.798;10.228;2023-02-23T12:16:23;11.80;;;7.25;;
26756;SDS011;23848;49.798;10.228;2023-02-23T12:19:01;10.35;;;7.10;;
26756;SDS011;23848;49.798;10.228;2023-02-23T12:21:31;12.32;;;7.35;;
26756;SDS011;23848;49.798;10.228;2023-02-23T12:24:09;11.07;;;7.47;;
26756;SDS011;23848;49.798;10.228;2023-02-23T12:26:43;9.70;;;7.10;;
26756;SDS011;23848;49.798;10.228;2023-02-23T12:29:15;12.77;;;7.47;;
26756;SDS011;23848;49.798;10.228;2023-02-23T12:31:45;11.40;;;7.15;;
26756;SDS011;23848;49.798;10.228;2023-02-23T12:34:18;11.00;;;6.63;;
26756;SDS011;23848;49.798;10.228;2023-02-23T12:37:11;9.07;;;5.50;;
26756;SDS011;23848;49.798;10.228;2023-02-23T12:39:45;8.93;;;5.68;;
26756;SDS011;23848;49.798;10.228;2023-02-23T12:42:21;9.20;;;5.35;;
26756;SDS011;23848;49.798;10.228;2023-02-23T12:44:53;8.63;;;5.28;;
26756;SDS011;23848;49.798;10.228;2023-02-23T12:47:38;10.13;;;5.95;;
26756;SDS011;23848;49.798;10.228;2023-02-23T12:50:24;9.75;;;5.55;;
26756;SDS011;23848;49.798;10.228;2023-02-23T12:53:03;9.00;;;5.30;;
26756;SDS011;23848;49.798;10.228;2023-02-23T12:55:39;10.68;;;5.75;;
26756;SDS011;23848;49.798;10.228;2023-02-23T12:58:16;7.93;;;5.22;;
26756;SDS011;23848;49.798;10.228;2023-02-23T13:01:04;14.70;;;8.73;;
26756;SDS011;23848;49.798;10.228;2023-02-23T13:03:44;18.73;;;10.20;;
26756;SDS011;23848;49.798;10.228;2023-02-23T13:06:24;18.40;;;10.00;;
26756;SDS011;23848;49.798;10.228;2023-02-23T13:09:24;23.80;;;12.15;;
26756;SDS011;23848;49.798;10.228;2023-02-23T13:14:41;16.80;;;8.05;;
26756;SDS011;23848;49.798;10.228;2023-02-23T13:17:18;13.07;;;7.30;;
26756;SDS011;23848;49.798;10.228;2023-02-23T13:19:52;10.38;;;6.53;;
26756;SDS011;23848;49.798;10.228;2023-02-23T13:22:29;9.70;;;6.32;;
26756;SDS011;23848;49.798;10.228;2023-02-23T13:25:00;8.30;;;5.68;;
26756;SDS011;23848;49.798;10.228;2023-02-23T13:27:32;8.45;;;5.40;;
26756;SDS011;23848;49.798;10.228;2023-02-23T13:30:03;8.20;;;5.15;;
26756;SDS011;23848;49.798;10.228;2023-02-23T13:32:35;10.60;;;5.97;;
26756;SDS011;23848;49.798;10.228;2023-02-23T13:35:05;10.38;;;6.25;;
26756;SDS011;23848;49.798;10.228;2023-02-23T13:37:39;11.15;;;6.35;;
26756;SDS011;23848;49.798;10.228;2023-02-23T13:42:54;11.43;;;6.83;;
26756;SDS011;23848;49.798;10.228;2023-02-23T13:45:46;11.88;;;6.95;;
26756;SDS011;23848;49.798;10.228;2023-02-23T13:51:27;10.35;;;6.95;;
26756;SDS011;23848;49.798;10.228;2023-02-23T13:54:23;15.27;;;8.45;;
26756;SDS011;23848;49.798;10.228;2023-02-23T13:56:58;14.23;;;8.73;;
26756;SDS011;23848;49.798;10.228;2023-02-23T13:59:36;13.93;;;8.75;;
26756;SDS011;23848;49.798;10.228;2023-02-23T14:02:19;15.30;;;8.95;;
26756;SDS011;23848;49.798;10.228;2023-02-23T14:04:55;14.48;;;8.77;;
26756;SDS011;23848;49.798;10.228;2023-02-23T14:07:28;13.90;;;7.28;;
26756;SDS011;23848;49.798;10.228;2023-02-23T14:09:59;13.00;;;8.32;;
26756;SDS011;23848;49.798;10.228;2023-02-23T14:12:32;14.18;;;8.23;;
26756;SDS011;23848;49.798;10.228;2023-02-23T14:18:03;13.30;;;7.97;;
26756;SDS011;23848;49.798;10.228;2023-02-23T14:20:41;13.93;;;8.88;;
26756;SDS011;23848;49.798;10.228;2023-02-23T14:23:28;13.60;;;8.38;;
26756;SDS011;23848;49.798;10.228;2023-02-23T14:26:14;14.32;;;9.35;;
26756;SDS011;23848;49.798;10.228;2023-02-23T14:28:45;12.75;;;8.00;;
26756;SDS011;23848;49.798;10.228;2023-02-23T14:31:51;12.07;;;7.40;;
26756;SDS011;23848;49.798;10.228;2023-02-23T14:34:41;11.73;;;6.85;;
26756;SDS011;23848;49.798;10.228;2023-02-23T14:37:16;11.55;;;6.97;;
26756;SDS011;23848;49.798;10.228;2023-02-23T14:39:50;11.75;;;7.13;;
26756;SDS011;23848;49.798;10.228;2023-02-23T14:42:21;10.40;;;6.97;;
26756;SDS011;23848;49.798;10.228;2023-02-23T14:44:51;11.02;;;6.70;;
26756;SDS011;23848;49.798;10.228;2023-02-23T14:47:20;13.88;;;7.38;;
26756;SDS011;23848;49.798;10.228;2023-02-23T14:49:49;11.45;;;7.55;;
26756;SDS011;23848;49.798;10.228;2023-02-23T14:52:19;10.60;;;7.32;;
26756;SDS011;23848;49.798;10.228;2023-02-23T14:54:50;11.55;;;7.63;;
26756;SDS011;23848;49.798;10.228;2023-02-23T14:57:19;12.75;;;7.70;;
26756;SDS011;23848;49.798;10.228;2023-02-23T14:59:53;14.13;;;7.78;;
26756;SDS011;23848;49.798;10.228;2023-02-23T15:02:21;12.00;;;7.72;;
26756;SDS011;23848;49.798;10.228;2023-02-23T15:04:50;13.65;;;8.40;;
26756;SDS011;23848;49.798;10.228;2023-02-23T15:07:25;16.83;;;10.70;;
26756;SDS011;23848;49.798;10.228;2023-02-23T15:09:56;15.77;;;10.32;;
26756;SDS011;23848;49.798;10.228;2023-02-23T15:12:26;17.13;;;10.48;;
26756;SDS011;23848;49.798;10.228;2023-02-23T15:14:57;15.80;;;9.60;;